sensor_id;sensor_type;location;lat;lon;timestamp;pressure;altitude;pressure_sealevel;temperature;humidity
37764;BME280;23602;51.084;7.090;2023-02-12T00:02:09;102468.66;;;5.45;100.00
37764;BME280;23602;51.084;7.090;2023-02-12T00:04:34;102461.50;;;5.46;100.00
37764;BME280;23602;51.084;7.090;2023-02-12T00:07:02;102468.66;;;5.45;100.00
37764;BME280;23602;51.084;7.090;2023-02-12T00:09:32;102465.84;;;5.47;100.00
37764;BME280;23602;51.084;7.090;2023-02-12T00:11:57;102471.19;;;5.47;100.00
37764;BME280;23602;51.084;7.090;2023-02-12T00:14:33;102471.19;;;5.47;100.00
37764;BME280;23602;51.084;7.090;2023-02-12T00:17:01;102477.50;;;5.46;100.00
37764;BME280;23602;51.084;7.090;2023-02-12T00:19:29;102473.97;;;5.45;100.00
37764;BME280;23602;51.084;7.090;2023-02-12T00:21:55;102463.78;;;5.39;100.00
37764;BME280;23602;51.084;7.090;2023-02-12T00:24:22;102470.94;;;5.39;100.00
37764;BME280;23602;51.084;7.090;2023-02-12T00:26:51;102467.44;;;5.38;100.00
37764;BME280;23602;51.084;7.090;2023-02-12T00:29:25;102477.88;;;5.41;100.00
37764;BME280;23602;51.084;7.090;2023-02-12T00:31:50;102478.69;;;5.42;100.00
37764;BME280;23602;51.084;7.090;2023-02-12T00:34:16;102476.88;;;5.42;100.00
37764;BME280;23602;51.084;7.090;2023-02-12T00:36:41;102475.91;;;5.43;100.00
37764;BME280;23602;51.084;7.090;2023-02-12T00:39:06;102476.16;;;5.40;100.00
37764;BME280;23602;51.084;7.090;2023-02-12T00:41:31;102476.16;;;5.40;100.00
37764;BME280;23602;51.084;7.090;2023-02-12T00:43:56;102475.31;;;5.40;100.00
37764;BME280;23602;51.084;7.090;2023-02-12T00:46:22;102471.78;;;5.39;100.00
37764;BME280;23602;51.084;7.090;2023-02-12T00:48:47;102477.00;;;5.41;100.00
37764;BME280;23602;51.084;7.090;2023-02-12T00:51:13;102474.44;;;5.39;100.00
37764;BME280;23602;51.084;7.090;2023-02-12T00:53:38;102473.50;;;5.40;100.00
37764;BME280;23602;51.084;7.090;2023-02-12T00:56:04;102473.50;;;5.40;100.00
37764;BME280;23602;51.084;7.090;2023-02-12T00:58:29;102459.44;;;5.38;100.00
37764;BME280;23602;51.084;7.090;2023-02-12T01:00:54;102450.56;;;5.38;100.00
37764;BME280;23602;51.084;7.090;2023-02-12T01:03:20;102460.38;;;5.37;100.00
37764;BME280;23602;51.084;7.090;2023-02-12T01:05:45;102457.72;;;5.37;100.00
37764;BME280;23602;51.084;7.090;2023-02-12T01:08:11;102464.88;;;5.37;100.00
37764;BME280;23602;51.084;7.090;2023-02-12T01:10:37;102469.38;;;5.36;100.00
37764;BME280;23602;51.084;7.090;2023-02-12T01:13:02;102465.97;;;5.34;100.00
37764;BME280;23602;51.084;7.090;2023-02-12T01:15:28;102467.66;;;5.35;100.00
37764;BME280;23602;51.084;7.090;2023-02-12T01:17:53;102452.63;;;5.34;100.00
37764;BME280;23602;51.084;7.090;2023-02-12T01:20:19;102452.63;;;5.34;100.00
37764;BME280;23602;51.084;7.090;2023-02-12T01:22:45;102451.91;;;5.32;100.00
37764;BME280;23602;51.084;7.090;2023-02-12T01:25:10;102451.03;;;5.32;100.00
37764;BME280;23602;51.084;7.090;2023-02-12T01:27:36;102452.25;;;5.28;100.00
37764;BME280;23602;51.084;7.090;2023-02-12T01:30:01;102448.03;;;5.25;100.00
37764;BME280;23602;51.084;7.090;2023-02-12T01:32:27;102447.28;;;5.23;100.00
37764;BME280;23602;51.084;7.090;2023-02-12T01:34:52;102446.56;;;5.21;100.00
37764;BME280;23602;51.084;7.090;2023-02-12T01:37:18;102443.16;;;5.08;100.00
37764;BME280;23602;51.084;7.090;2023-02-12T01:39:43;102458.38;;;4.95;100.00
37764;BME280;23602;51.084;7.090;2023-02-12T01:42:10;102464.06;;;4.90;100.00
37764;BME280;23602;51.084;7.090;2023-02-12T01:44:36;102456.91;;;4.91;100.00
37764;BME280;23602;51.084;7.090;2023-02-12T01:47:04;102454.72;;;4.85;100.00
37764;BME280;23602;51.084;7.090;2023-02-12T01:49:34;102451.28;;;4.72;100.00
37764;BME280;23602;51.084;7.090;2023-02-12T01:52:04;102453.22;;;4.70;100.00
37764;BME280;23602;51.084;7.090;2023-02-12T01:54:32;102457.47;;;4.72;100.00
37764;BME280;23602;51.084;7.090;2023-02-12T01:56:58;102462.66;;;4.74;100.00
37764;BME280;23602;51.084;7.090;2023-02-12T01:59:24;102461.06;;;4.71;100.00
37764;BME280;23602;51.084;7.090;2023-02-12T02:01:49;102459.50;;;4.69;100.00
37764;BME280;23602;51.084;7.090;2023-02-12T02:04:16;102458.75;;;4.67;100.00
37764;BME280;23602;51.084;7.090;2023-02-12T02:06:48;102459.25;;;4.72;100.00
37764;BME280;23602;51.084;7.090;2023-02-12T02:09:15;102459.75;;;4.77;100.00
37764;BME280;23602;51.084;7.090;2023-02-12T02:11:41;102464.00;;;4.79;100.00
37764;BME280;23602;51.084;7.090;2023-02-12T02:14:25;102466.31;;;4.84;100.00
37764;BME280;23602;51.084;7.090;2023-02-12T02:17:12;102467.06;;;4.86;100.00
37764;BME280;23602;51.084;7.090;2023-02-12T02:19:49;102460.78;;;4.87;100.00
37764;BME280;23602;51.084;7.090;2023-02-12T02:22:21;102461.50;;;4.89;100.00
37764;BME280;23602;51.084;7.090;2023-02-12T02:32:48;102464.78;;;4.92;100.00
37764;BME280;23602;51.084;7.090;2023-02-12T02:35:21;102473.63;;;4.93;100.00
37764;BME280;23602;51.084;7.090;2023-02-12T02:37:59;102465.50;;;4.94;100.00
37764;BME280;23602;51.084;7.090;2023-02-12T02:40:32;102463.94;;;4.92;100.00
37764;BME280;23602;51.084;7.090;2023-02-12T02:43:06;102456.91;;;4.91;100.00
37764;BME280;23602;51.084;7.090;2023-02-12T02:45:36;102453.06;;;4.95;100.00
37764;BME280;23602;51.084;7.090;2023-02-12T02:48:03;102465.38;;;4.96;100.00
37764;BME280;23602;51.084;7.090;2023-02-12T02:50:33;102467.94;;;4.97;100.00
37764;BME280;23602;51.084;7.090;2023-02-12T02:53:10;102462.50;;;4.99;100.00
37764;BME280;23602;51.084;7.090;2023-02-12T02:55:42;102465.06;;;5.00;100.00
37764;BME280;23602;51.084;7.090;2023-02-12T02:58:09;102465.16;;;4.99;100.00
37764;BME280;23602;51.084;7.090;2023-02-12T03:00:56;102458.88;;;5.00;100.00
37764;BME280;23602;51.084;7.090;2023-02-12T03:03:24;102453.66;;;4.98;100.00
37764;BME280;23602;51.084;7.090;2023-02-12T03:05:51;102464.31;;;4.98;100.00
37764;BME280;23602;51.084;7.090;2023-02-12T03:08:23;102455.34;;;4.99;100.00
37764;BME280;23602;51.084;7.090;2023-02-12T03:10:57;102460.56;;;5.01;100.00
37764;BME280;23602;51.084;7.090;2023-02-12T03:13:25;102457.16;;;4.99;100.00
37764;BME280;23602;51.084;7.090;2023-02-12T03:16:01;102465.16;;;4.99;100.00
37764;BME280;23602;51.084;7.090;2023-02-12T03:18:29;102461.53;;;5.00;100.00
37764;BME280;23602;51.084;7.090;2023-02-12T03:20:58;102457.06;;;5.00;100.00
37764;BME280;23602;51.084;7.090;2023-02-12T03:23:29;102464.31;;;4.98;100.00
37764;BME280;23602;51.084;7.090;2023-02-12T03:25:58;102458.16;;;4.98;100.00
37764;BME280;23602;51.084;7.090;2023-02-12T03:28:28;102456.31;;;4.98;100.00
37764;BME280;23602;51.084;7.090;2023-02-12T03:33:38;102458.75;;;5.01;100.00
37764;BME280;23602;51.084;7.090;2023-02-12T03:36:12;102454.28;;;5.02;100.00
37764;BME280;23602;51.084;7.090;2023-02-12T03:38:43;102457.66;;;5.04;100.00
37764;BME280;23602;51.084;7.090;2023-02-12T03:41:13;102454.13;;;5.03;100.00
37764;BME280;23602;51.084;7.090;2023-02-12T03:43:52;102446.16;;;5.03;100.00
37764;BME280;23602;51.084;7.090;2023-02-12T03:46:19;102448.00;;;5.03;100.00
37764;BME280;23602;51.084;7.090;2023-02-12T03:51:28;102447.00;;;5.04;100.00
37764;BME280;23602;51.084;7.090;2023-02-12T03:53:56;102445.31;;;5.03;100.00
37764;BME280;23602;51.084;7.090;2023-02-12T03:56:31;102444.34;;;5.04;100.00
37764;BME280;23602;51.084;7.090;2023-02-12T03:58:57;102446.03;;;5.05;100.00
37764;BME280;23602;51.084;7.090;2023-02-12T04:01:22;102447.00;;;5.04;100.00
37764;BME280;23602;51.084;7.090;2023-02-12T04:03:47;102446.28;;;5.02;100.00
37764;BME280;23602;51.084;7.090;2023-02-12T04:06:17;102443.75;;;5.00;100.00
37764;BME280;23602;51.084;7.090;2023-02-12T04:08:43;102446.28;;;5.02;100.00
37764;BME280;23602;51.084;7.090;2023-02-12T04:11:25;102435.63;;;5.02;100.00
37764;BME280;23602;51.084;7.090;2023-02-12T04:16:39;102450.88;;;5.00;100.00
37764;BME280;23602;51.084;7.090;2023-02-12T04:19:05;102450.88;;;5.00;100.00
37764;BME280;23602;51.084;7.090;2023-02-12T04:21:36;102448.94;;;5.02;100.00
37764;BME280;23602;51.084;7.090;2023-02-12T04:24:09;102448.31;;;4.98;100.00
37764;BME280;23602;51.084;7.090;2023-02-12T04:26:54;102458.88;;;5.00;100.00
37764;BME280;23602;51.084;7.090;2023-02-12T04:29:39;102460.69;;;4.99;100.00
37764;BME280;23602;51.084;7.090;2023-02-12T04:32:29;102460.69;;;4.99;100.00
37764;BME280;23602;51.084;7.090;2023-02-12T04:35:08;102468.69;;;4.99;100.00
37764;BME280;23602;51.084;7.090;2023-02-12T04:37:45;102473.06;;;5.00;100.00
37764;BME280;23602;51.084;7.090;2023-02-12T04:40:14;102472.19;;;5.00;100.00
37764;BME280;23602;51.084;7.090;2023-02-12T04:42:42;102466.88;;;5.00;100.00
37764;BME280;23602;51.084;7.090;2023-02-12T04:45:08;102472.06;;;5.01;100.00
37764;BME280;23602;51.084;7.090;2023-02-12T04:47:36;102474.72;;;5.01;100.00
37764;BME280;23602;51.084;7.090;2023-02-12T04:50:02;102471.34;;;4.99;100.00
37764;BME280;23602;51.084;7.090;2023-02-12T04:52:27;102475.59;;;5.02;100.00
37764;BME280;23602;51.084;7.090;2023-02-12T04:54:52;102473.88;;;5.01;100.00
37764;BME280;23602;51.084;7.090;2023-02-12T04:57:18;102484.53;;;5.01;100.00
37764;BME280;23602;51.084;7.090;2023-02-12T04:59:43;102485.53;;;5.00;100.00
37764;BME280;23602;51.084;7.090;2023-02-12T05:02:08;102477.53;;;5.00;100.00
37764;BME280;23602;51.084;7.090;2023-02-12T05:04:33;102479.97;;;5.03;100.00
37764;BME280;23602;51.084;7.090;2023-02-12T05:06:59;102486.03;;;5.05;100.00
37764;BME280;23602;51.084;7.090;2023-02-12T05:09:24;102488.69;;;5.05;100.00
37764;BME280;23602;51.084;7.090;2023-02-12T05:11:51;102485.88;;;5.06;100.00
37764;BME280;23602;51.084;7.090;2023-02-12T05:14:16;102480.47;;;5.08;100.00
37764;BME280;23602;51.084;7.090;2023-02-12T05:16:41;102473.28;;;5.08;100.00
37764;BME280;23602;51.084;7.090;2023-02-12T05:19:06;102476.09;;;5.07;100.00
37764;BME280;23602;51.084;7.090;2023-02-12T05:21:33;102476.94;;;5.07;100.00
37764;BME280;23602;51.084;7.090;2023-02-12T05:23:59;102481.41;;;5.07;100.00
37764;BME280;23602;51.084;7.090;2023-02-12T05:26:25;102475.13;;;5.08;100.00
37764;BME280;23602;51.084;7.090;2023-02-12T05:28:50;102477.81;;;5.08;100.00
37764;BME280;23602;51.084;7.090;2023-02-12T05:31:16;102479.84;;;5.04;100.00
37764;BME280;23602;51.084;7.090;2023-02-12T05:33:42;102485.78;;;5.08;100.00
37764;BME280;23602;51.084;7.090;2023-02-12T05:36:09;102491.13;;;5.08;100.00
37764;BME280;23602;51.084;7.090;2023-02-12T05:38:34;102487.47;;;5.09;100.00
37764;BME280;23602;51.084;7.090;2023-02-12T05:41:01;102487.47;;;5.09;100.00
37764;BME280;23602;51.084;7.090;2023-02-12T05:43:26;102498.84;;;5.11;100.00
37764;BME280;23602;51.084;7.090;2023-02-12T05:45:51;102499.00;;;5.09;100.00
37764;BME280;23602;51.084;7.090;2023-02-12T05:48:17;102496.31;;;5.09;100.00
37764;BME280;23602;51.084;7.090;2023-02-12T05:50:42;102492.81;;;5.09;100.00
37764;BME280;23602;51.084;7.090;2023-02-12T05:53:07;102496.19;;;5.11;100.00
37764;BME280;23602;51.084;7.090;2023-02-12T05:55:33;102497.03;;;5.11;100.00
37764;BME280;23602;51.084;7.090;2023-02-12T05:57:58;102503.22;;;5.12;100.00
37764;BME280;23602;51.084;7.090;2023-02-12T06:00:23;102502.28;;;5.13;100.00
37764;BME280;23602;51.084;7.090;2023-02-12T06:02:48;102499.38;;;5.16;100.00
37764;BME280;23602;51.084;7.090;2023-02-12T06:05:14;102499.38;;;5.16;100.00
37764;BME280;23602;51.084;7.090;2023-02-12T06:07:39;102498.53;;;5.16;100.00
37764;BME280;23602;51.084;7.090;2023-02-12T06:10:04;102499.47;;;5.15;100.00
37764;BME280;23602;51.084;7.090;2023-02-12T06:12:29;102498.75;;;5.13;100.00
37764;BME280;23602;51.084;7.090;2023-02-12T06:14:55;102503.22;;;5.12;100.00
37764;BME280;23602;51.084;7.090;2023-02-12T06:17:20;102506.63;;;5.14;100.00
37764;BME280;23602;51.084;7.090;2023-02-12T06:19:45;102496.94;;;5.13;100.00
37764;BME280;23602;51.084;7.090;2023-02-12T06:22:10;102492.69;;;5.10;100.00
37764;BME280;23602;51.084;7.090;2023-02-12T06:24:36;102499.72;;;5.11;100.00
37764;BME280;23602;51.084;7.090;2023-02-12T06:27:01;102497.19;;;5.10;100.00
37764;BME280;23602;51.084;7.090;2023-02-12T06:29:26;102487.38;;;5.10;100.00
37764;BME280;23602;51.084;7.090;2023-02-12T06:31:52;102494.50;;;5.10;100.00
37764;BME280;23602;51.084;7.090;2023-02-12T06:34:17;102483.94;;;5.08;100.00
37764;BME280;23602;51.084;7.090;2023-02-12T06:36:42;102495.25;;;5.12;100.00
37764;BME280;23602;51.084;7.090;2023-02-12T06:39:11;102499.47;;;5.15;100.00
37764;BME280;23602;51.084;7.090;2023-02-12T06:41:37;102499.47;;;5.15;100.00
37764;BME280;23602;51.084;7.090;2023-02-12T06:44:02;102506.53;;;5.16;100.00
37764;BME280;23602;51.084;7.090;2023-02-12T06:46:28;102501.28;;;5.14;100.00
37764;BME280;23602;51.084;7.090;2023-02-12T06:48:55;102501.19;;;5.16;100.00
37764;BME280;23602;51.084;7.090;2023-02-12T06:51:20;102503.72;;;5.17;100.00
37764;BME280;23602;51.084;7.090;2023-02-12T06:53:47;102513.31;;;5.20;100.00
37764;BME280;23602;51.084;7.090;2023-02-12T06:56:13;102512.34;;;5.21;100.00
37764;BME280;23602;51.084;7.090;2023-02-12T06:58:39;102513.22;;;5.21;100.00
37764;BME280;23602;51.084;7.090;2023-02-12T07:01:15;102521.22;;;5.21;100.00
37764;BME280;23602;51.084;7.090;2023-02-12T07:03:42;102523.88;;;5.21;100.00
37764;BME280;23602;51.084;7.090;2023-02-12T07:06:08;102532.81;;;5.20;100.00
37764;BME280;23602;51.084;7.090;2023-02-12T07:08:34;102533.69;;;5.21;100.00
37764;BME280;23602;51.084;7.090;2023-02-12T07:10:59;102529.22;;;5.21;100.00
37764;BME280;23602;51.084;7.090;2023-02-12T07:13:25;102536.22;;;5.22;100.00
37764;BME280;23602;51.084;7.090;2023-02-12T07:15:50;102533.44;;;5.24;100.00
37764;BME280;23602;51.084;7.090;2023-02-12T07:18:15;102529.81;;;5.25;100.00
37764;BME280;23602;51.084;7.090;2023-02-12T07:20:41;102539.38;;;5.27;100.00
37764;BME280;23602;51.084;7.090;2023-02-12T07:23:09;102541.09;;;5.28;100.00
37764;BME280;23602;51.084;7.090;2023-02-12T07:25:34;102542.69;;;5.31;100.00
37764;BME280;23602;51.084;7.090;2023-02-12T07:28:00;102539.88;;;5.32;100.00
37764;BME280;23602;51.084;7.090;2023-02-12T07:30:25;102541.47;;;5.35;100.00
37764;BME280;23602;51.084;7.090;2023-02-12T07:32:50;102543.28;;;5.34;100.00
37764;BME280;23602;51.084;7.090;2023-02-12T07:35:15;102546.69;;;5.36;100.00
37764;BME280;23602;51.084;7.090;2023-02-12T07:37:41;102543.03;;;5.37;100.00
37764;BME280;23602;51.084;7.090;2023-02-12T07:40:06;102545.47;;;5.40;100.00
37764;BME280;23602;51.084;7.090;2023-02-12T07:42:32;102545.25;;;5.43;100.00
37764;BME280;23602;51.084;7.090;2023-02-12T07:44:57;102549.50;;;5.46;100.00
37764;BME280;23602;51.084;7.090;2023-02-12T07:47:22;102550.09;;;5.49;100.00
37764;BME280;23602;51.084;7.090;2023-02-12T07:49:48;102551.66;;;5.52;100.00
37764;BME280;23602;51.084;7.090;2023-02-12T07:52:13;102554.09;;;5.55;100.00
37764;BME280;23602;51.084;7.090;2023-02-12T07:54:38;102549.41;;;5.58;100.00
37764;BME280;23602;51.084;7.090;2023-02-12T07:57:03;102560.66;;;5.62;100.00
37764;BME280;23602;51.084;7.090;2023-02-12T07:59:29;102555.94;;;5.65;100.00
37764;BME280;23602;51.084;7.090;2023-02-12T08:01:54;102548.44;;;5.70;100.00
37764;BME280;23602;51.084;7.090;2023-02-12T08:04:21;102550.88;;;5.73;100.00
37764;BME280;23602;51.084;7.090;2023-02-12T08:06:48;102556.84;;;5.77;100.00
37764;BME280;23602;51.084;7.090;2023-02-12T08:09:15;102559.22;;;5.80;100.00
37764;BME280;23602;51.084;7.090;2023-02-12T08:11:40;102557.94;;;5.86;100.00
37764;BME280;23602;51.084;7.090;2023-02-12T08:14:06;102561.34;;;5.88;100.00
37764;BME280;23602;51.084;7.090;2023-02-12T08:16:34;102561.09;;;5.91;100.00
37764;BME280;23602;51.084;7.090;2023-02-12T08:19:00;102557.47;;;5.92;100.00
37764;BME280;23602;51.084;7.090;2023-02-12T08:21:26;102562.31;;;5.98;100.00
37764;BME280;23602;51.084;7.090;2023-02-12T08:23:52;102564.75;;;6.01;100.00
37764;BME280;23602;51.084;7.090;2023-02-12T08:28:50;102565.13;;;6.07;100.00
37764;BME280;23602;51.084;7.090;2023-02-12T08:31:18;102567.28;;;6.13;100.00
37764;BME280;23602;51.084;7.090;2023-02-12T08:33:45;102566.09;;;6.17;100.00
37764;BME280;23602;51.084;7.090;2023-02-12T08:36:11;102571.06;;;6.22;100.00
37764;BME280;23602;51.084;7.090;2023-02-12T08:38:38;102568.00;;;6.26;100.00
37764;BME280;23602;51.084;7.090;2023-02-12T08:41:05;102573.34;;;6.26;100.00
37764;BME280;23602;51.084;7.090;2023-02-12T08:43:31;102578.31;;;6.31;100.00
37764;BME280;23602;51.084;7.090;2023-02-12T08:46:06;102567.03;;;6.38;100.00
37764;BME280;23602;51.084;7.090;2023-02-12T08:48:31;102563.72;;;6.46;100.00
37764;BME280;23602;51.084;7.090;2023-02-12T08:51:16;102569.06;;;6.57;100.00
37764;BME280;23602;51.084;7.090;2023-02-12T08:53:43;102567.34;;;6.67;100.00
37764;BME280;23602;51.084;7.090;2023-02-12T08:56:08;102550.94;;;6.72;100.00
37764;BME280;23602;51.084;7.090;2023-02-12T08:58:34;102544.00;;;6.80;100.00
37764;BME280;23602;51.084;7.090;2023-02-12T09:01:00;102542.00;;;6.93;100.00
37764;BME280;23602;51.084;7.090;2023-02-12T09:03:25;102537.69;;;7.02;100.00
37764;BME280;23602;51.084;7.090;2023-02-12T09:05:53;102528.78;;;7.13;100.00
37764;BME280;23602;51.084;7.090;2023-02-12T09:08:19;102533.06;;;7.25;100.00
37764;BME280;23602;51.084;7.090;2023-02-12T09:10:44;102519.66;;;7.36;100.00
37764;BME280;23602;51.084;7.090;2023-02-12T09:13:10;102519.50;;;7.37;100.00
37764;BME280;23602;51.084;7.090;2023-02-12T09:15:40;102512.75;;;7.33;100.00
37764;BME280;23602;51.084;7.090;2023-02-12T09:18:09;102506.47;;;7.44;100.00
37764;BME280;23602;51.084;7.090;2023-02-12T09:20:38;102505.81;;;7.51;100.00
37764;BME280;23602;51.084;7.090;2023-02-12T09:23:06;102508.22;;;7.54;100.00
37764;BME280;23602;51.084;7.090;2023-02-12T09:25:32;102507.56;;;7.62;100.00
37764;BME280;23602;51.084;7.090;2023-02-12T09:28:03;102498.03;;;7.69;100.00
37764;BME280;23602;51.084;7.090;2023-02-12T09:30:30;102483.09;;;7.67;100.00
37764;BME280;23602;51.084;7.090;2023-02-12T09:33:03;102468.72;;;7.68;100.00
37764;BME280;23602;51.084;7.090;2023-02-12T09:35:54;102450.81;;;7.68;100.00
37764;BME280;23602;51.084;7.090;2023-02-12T09:38:26;102444.13;;;7.83;100.00
37764;BME280;23602;51.084;7.090;2023-02-12T09:43:43;102440.81;;;8.00;100.00
37764;BME280;23602;51.084;7.090;2023-02-12T09:50:59;102421.50;;;8.06;100.00
37764;BME280;23602;51.084;7.090;2023-02-12T09:53:28;102420.25;;;8.10;100.00
37764;BME280;23602;51.084;7.090;2023-02-12T09:55:54;102411.94;;;8.13;100.00
37764;BME280;23602;51.084;7.090;2023-02-12T09:58:33;102415.31;;;8.15;100.00
37764;BME280;23602;51.084;7.090;2023-02-12T10:01:00;102415.34;;;8.25;100.00
37764;BME280;23602;51.084;7.090;2023-02-12T10:03:29;102418.06;;;8.35;100.00
37764;BME280;23602;51.084;7.090;2023-02-12T10:05:58;102406.72;;;8.12;100.00
37764;BME280;23602;51.084;7.090;2023-02-12T10:22:02;102395.78;;;8.53;100.00
37764;BME280;23602;51.084;7.090;2023-02-12T10:27:14;102385.63;;;8.66;100.00
37764;BME280;23602;51.084;7.090;2023-02-12T10:29:40;102382.78;;;8.77;100.00
37764;BME280;23602;51.084;7.090;2023-02-12T10:34:36;102378.06;;;9.08;100.00
37764;BME280;23602;51.084;7.090;2023-02-12T10:37:12;102375.31;;;9.27;100.00
37764;BME280;23602;51.084;7.090;2023-02-12T10:39:42;102380.59;;;9.46;100.00
37764;BME280;23602;51.084;7.090;2023-02-12T10:42:16;102374.19;;;9.57;100.00
37764;BME280;23602;51.084;7.090;2023-02-12T10:44:42;102372.06;;;9.61;100.00
37764;BME280;23602;51.084;7.090;2023-02-12T10:50:00;102365.34;;;9.47;100.00
37764;BME280;23602;51.084;7.090;2023-02-12T10:55:00;102361.47;;;9.32;100.00
37764;BME280;23602;51.084;7.090;2023-02-12T10:57:28;102363.13;;;9.42;100.00
37764;BME280;23602;51.084;7.090;2023-02-12T10:59:55;102360.97;;;9.46;100.00
37764;BME280;23602;51.084;7.090;2023-02-12T11:02:28;102355.00;;;9.52;100.00
37764;BME280;23602;51.084;7.090;2023-02-12T11:04:58;102360.13;;;9.45;100.00
37764;BME280;23602;51.084;7.090;2023-02-12T11:07:24;102367.91;;;9.39;100.00
37764;BME280;23602;51.084;7.090;2023-02-12T11:09:53;102369.66;;;9.30;100.00
37764;BME280;23602;51.084;7.090;2023-02-12T11:12:27;102363.97;;;9.33;100.00
37764;BME280;23602;51.084;7.090;2023-02-12T11:14:56;102358.94;;;9.30;100.00
37764;BME280;23602;51.084;7.090;2023-02-12T11:17:23;102351.56;;;9.32;100.00
37764;BME280;23602;51.084;7.090;2023-02-12T11:20:00;102367.00;;;9.30;100.00
37764;BME280;23602;51.084;7.090;2023-02-12T11:22:26;102361.63;;;9.30;100.00
37764;BME280;23602;51.084;7.090;2023-02-12T11:25:07;102353.97;;;9.35;100.00
37764;BME280;23602;51.084;7.090;2023-02-12T11:27:50;102349.09;;;9.48;100.00
37764;BME280;23602;51.084;7.090;2023-02-12T11:30:28;102347.66;;;9.54;100.00
37764;BME280;23602;51.084;7.090;2023-02-12T11:33:13;102339.75;;;9.52;100.00
37764;BME280;23602;51.084;7.090;2023-02-12T11:35:50;102340.44;;;9.54;100.00
37764;BME280;23602;51.084;7.090;2023-02-12T11:38:26;102334.22;;;9.54;100.00
37764;BME280;23602;51.084;7.090;2023-02-12T11:40:54;102321.25;;;9.49;100.00
37764;BME280;23602;51.084;7.090;2023-02-12T11:43:21;102320.00;;;9.44;100.00
37764;BME280;23602;51.084;7.090;2023-02-12T11:45:48;102323.03;;;9.59;100.00
37764;BME280;23602;51.084;7.090;2023-02-12T11:50:55;102313.47;;;9.74;100.00
37764;BME280;23602;51.084;7.090;2023-02-12T11:53:28;102317.56;;;9.78;100.00
37764;BME280;23602;51.084;7.090;2023-02-12T11:55:58;102319.84;;;9.73;100.00
37764;BME280;23602;51.084;7.090;2023-02-12T11:58:24;102320.53;;;9.75;100.00
37764;BME280;23602;51.084;7.090;2023-02-12T12:03:32;102321.84;;;9.71;100.00
37764;BME280;23602;51.084;7.090;2023-02-12T12:06:00;102319.59;;;9.66;100.00
37764;BME280;23602;51.084;7.090;2023-02-12T12:08:39;102312.31;;;9.59;100.00
37764;BME280;23602;51.084;7.090;2023-02-12T12:11:10;102314.00;;;9.60;100.00
37764;BME280;23602;51.084;7.090;2023-02-12T12:13:39;102308.63;;;9.60;100.00
37764;BME280;23602;51.084;7.090;2023-02-12T12:16:10;102307.56;;;9.52;100.00
37764;BME280;23602;51.084;7.090;2023-02-12T12:19:03;102310.91;;;9.54;100.00
37764;BME280;23602;51.084;7.090;2023-02-12T12:24:38;102301.56;;;9.59;100.00
37764;BME280;23602;51.084;7.090;2023-02-12T12:27:31;102298.69;;;9.70;100.00
37764;BME280;23602;51.084;7.090;2023-02-12T12:30:22;102289.63;;;9.71;100.00
37764;BME280;23602;51.084;7.090;2023-02-12T12:32:52;102288.19;;;9.76;100.00
37764;BME280;23602;51.084;7.090;2023-02-12T12:35:24;102282.09;;;9.74;100.00
37764;BME280;23602;51.084;7.090;2023-02-12T12:38:18;102276.34;;;9.69;100.00
37764;BME280;23602;51.084;7.090;2023-02-12T12:40:55;102282.97;;;9.75;100.00
37764;BME280;23602;51.084;7.090;2023-02-12T12:43:35;102282.28;;;9.73;100.00
37764;BME280;23602;51.084;7.090;2023-02-12T12:51:49;102256.66;;;9.61;100.00
37764;BME280;23602;51.084;7.090;2023-02-12T12:55:01;102263.78;;;9.70;100.00
37764;BME280;23602;51.084;7.090;2023-02-12T12:57:19;102248.72;;;9.77;100.00
37764;BME280;23602;51.084;7.090;2023-02-12T12:59:55;102251.66;;;9.83;100.00
37764;BME280;23602;51.084;7.090;2023-02-12T13:07:46;102239.59;;;10.05;100.00
37764;BME280;23602;51.084;7.090;2023-02-12T13:12:52;102238.63;;;10.24;100.00
37764;BME280;23602;51.084;7.090;2023-02-12T13:15:31;102234.03;;;10.16;100.00
37764;BME280;23602;51.084;7.090;2023-02-12T13:18:03;102230.31;;;10.17;100.00
37764;BME280;23602;51.084;7.090;2023-02-12T13:20:50;102232.75;;;10.10;100.00
37764;BME280;23602;51.084;7.090;2023-02-12T13:23:33;102230.69;;;10.04;100.00
37764;BME280;23602;51.084;7.090;2023-02-12T13:28:51;102230.00;;;10.02;100.00
37764;BME280;23602;51.084;7.090;2023-02-12T13:31:19;102231.25;;;9.90;100.00
37764;BME280;23602;51.084;7.090;2023-02-12T13:33:53;102227.03;;;9.88;100.00
37764;BME280;23602;51.084;7.090;2023-02-12T13:36:19;102220.28;;;9.84;100.00
37764;BME280;23602;51.084;7.090;2023-02-12T13:38:52;102223.59;;;9.78;100.00
37764;BME280;23602;51.084;7.090;2023-02-12T13:41:20;102215.63;;;9.86;100.00
37764;BME280;23602;51.084;7.090;2023-02-12T13:46:27;102218.69;;;9.91;100.00
37764;BME280;23602;51.084;7.090;2023-02-12T13:49:13;102220.03;;;9.95;100.00
37764;BME280;23602;51.084;7.090;2023-02-12T13:57:25;102206.22;;;9.90;100.00
37764;BME280;23602;51.084;7.090;2023-02-12T13:59:51;102208.31;;;9.96;100.00
37764;BME280;23602;51.084;7.090;2023-02-12T14:02:27;102211.78;;;9.88;100.00
37764;BME280;23602;51.084;7.090;2023-02-12T14:04:57;102205.16;;;10.00;100.00
37764;BME280;23602;51.084;7.090;2023-02-12T14:07:38;102213.28;;;10.08;100.00
37764;BME280;23602;51.084;7.090;2023-02-12T14:13:21;102196.00;;;10.11;100.00
37764;BME280;23602;51.084;7.090;2023-02-12T14:15:52;102195.03;;;10.12;100.00
37764;BME280;23602;51.084;7.090;2023-02-12T14:18:21;102202.22;;;10.11;100.00
37764;BME280;23602;51.084;7.090;2023-02-12T14:23:38;102192.03;;;9.97;100.00
37764;BME280;23602;51.084;7.090;2023-02-12T14:26:04;102193.03;;;9.96;100.00
37764;BME280;23602;51.084;7.090;2023-02-12T14:31:30;102199.41;;;9.95;100.00
37764;BME280;23602;51.084;7.090;2023-02-12T14:36:37;102199.88;;;9.91;100.00